sensor_id;sensor_type;location;lat;lon;timestamp;P1;durP1;ratioP1;P2;durP2;ratioP2
13967;SDS011;39536;52.198;9.920;2023-07-13T00:00:47;3.17;;;2.90;;
13967;SDS011;39536;52.198;9.920;2023-07-13T00:03:15;4.03;;;2.80;;
13967;SDS011;39536;52.198;9.920;2023-07-13T00:05:42;3.37;;;3.03;;
13967;SDS011;39536;52.198;9.920;2023-07-13T00:08:09;3.90;;;3.23;;
13967;SDS011;39536;52.198;9.920;2023-07-13T00:10:38;4.87;;;3.03;;
13967;SDS011;39536;52.198;9.920;2023-07-13T00:13:06;4.33;;;2.70;;
13967;SDS011;39536;52.198;9.920;2023-07-13T00:15:33;3.60;;;3.30;;
13967;SDS011;39536;52.198;9.920;2023-07-13T00:18:00;3.50;;;3.20;;
13967;SDS011;39536;52.198;9.920;2023-07-13T00:20:28;3.87;;;3.47;;
13967;SDS011;39536;52.198;9.920;2023-07-13T00:22:55;4.23;;;3.00;;
13967;SDS011;39536;52.198;9.920;2023-07-13T00:25:22;4.03;;;2.90;;
13967;SDS011;39536;52.198;9.920;2023-07-13T00:27:53;4.67;;;3.03;;
13967;SDS011;39536;52.198;9.920;2023-07-13T00:30:20;4.07;;;2.57;;
13967;SDS011;39536;52.198;9.920;2023-07-13T00:32:47;3.03;;;2.73;;
13967;SDS011;39536;52.198;9.920;2023-07-13T00:35:14;3.10;;;2.90;;
13967;SDS011;39536;52.198;9.920;2023-07-13T00:37:43;3.73;;;2.70;;
13967;SDS011;39536;52.198;9.920;2023-07-13T00:40:10;3.80;;;3.33;;
13967;SDS011;39536;52.198;9.920;2023-07-13T00:42:37;4.30;;;2.77;;
13967;SDS011;39536;52.198;9.920;2023-07-13T00:45:05;2.90;;;2.63;;
13967;SDS011;39536;52.198;9.920;2023-07-13T00:47:53;2.40;;;2.23;;
13967;SDS011;39536;52.198;9.920;2023-07-13T00:50:21;3.23;;;2.80;;
13967;SDS011;39536;52.198;9.920;2023-07-13T00:52:50;3.33;;;2.87;;
13967;SDS011;39536;52.198;9.920;2023-07-13T00:55:19;4.80;;;3.50;;
13967;SDS011;39536;52.198;9.920;2023-07-13T00:57:48;5.40;;;3.00;;
13967;SDS011;39536;52.198;9.920;2023-07-13T01:00:15;3.13;;;2.83;;
13967;SDS011;39536;52.198;9.920;2023-07-13T01:02:43;3.90;;;3.10;;
13967;SDS011;39536;52.198;9.920;2023-07-13T01:05:13;3.47;;;3.03;;
13967;SDS011;39536;52.198;9.920;2023-07-13T01:07:47;5.43;;;2.87;;
13967;SDS011;39536;52.198;9.920;2023-07-13T01:10:17;3.10;;;2.77;;
13967;SDS011;39536;52.198;9.920;2023-07-13T01:12:47;3.17;;;2.87;;
13967;SDS011;39536;52.198;9.920;2023-07-13T01:15:33;3.33;;;2.83;;
13967;SDS011;39536;52.198;9.920;2023-07-13T01:18:02;2.67;;;2.47;;
13967;SDS011;39536;52.198;9.920;2023-07-13T01:20:30;5.13;;;2.87;;
13967;SDS011;39536;52.198;9.920;2023-07-13T01:22:57;8.27;;;3.57;;
13967;SDS011;39536;52.198;9.920;2023-07-13T01:25:24;3.57;;;2.63;;
13967;SDS011;39536;52.198;9.920;2023-07-13T01:27:51;2.93;;;2.73;;
13967;SDS011;39536;52.198;9.920;2023-07-13T01:30:17;5.17;;;2.40;;
13967;SDS011;39536;52.198;9.920;2023-07-13T01:32:44;5.10;;;2.23;;
13967;SDS011;39536;52.198;9.920;2023-07-13T01:35:11;2.80;;;2.57;;
13967;SDS011;39536;52.198;9.920;2023-07-13T01:37:38;2.90;;;2.70;;
13967;SDS011;39536;52.198;9.920;2023-07-13T01:40:07;4.00;;;2.97;;
13967;SDS011;39536;52.198;9.920;2023-07-13T01:42:34;3.17;;;2.40;;
13967;SDS011;39536;52.198;9.920;2023-07-13T01:45:01;2.40;;;2.20;;
13967;SDS011;39536;52.198;9.920;2023-07-13T01:47:27;2.60;;;2.40;;
13967;SDS011;39536;52.198;9.920;2023-07-13T01:49:55;4.37;;;2.77;;
13967;SDS011;39536;52.198;9.920;2023-07-13T01:52:22;5.33;;;2.60;;
13967;SDS011;39536;52.198;9.920;2023-07-13T01:54:49;3.57;;;2.83;;
13967;SDS011;39536;52.198;9.920;2023-07-13T01:57:17;3.37;;;2.43;;
13967;SDS011;39536;52.198;9.920;2023-07-13T01:59:43;10.33;;;2.67;;
13967;SDS011;39536;52.198;9.920;2023-07-13T02:02:10;3.07;;;2.23;;
13967;SDS011;39536;52.198;9.920;2023-07-13T02:04:36;4.63;;;2.97;;
13967;SDS011;39536;52.198;9.920;2023-07-13T02:07:03;2.87;;;2.60;;
13967;SDS011;39536;52.198;9.920;2023-07-13T02:09:30;2.43;;;2.10;;
13967;SDS011;39536;52.198;9.920;2023-07-13T02:11:57;4.40;;;2.53;;
13967;SDS011;39536;52.198;9.920;2023-07-13T02:14:25;3.20;;;2.50;;
13967;SDS011;39536;52.198;9.920;2023-07-13T02:16:51;4.33;;;2.40;;
13967;SDS011;39536;52.198;9.920;2023-07-13T02:19:18;2.70;;;2.50;;
13967;SDS011;39536;52.198;9.920;2023-07-13T02:21:44;2.67;;;2.47;;
13967;SDS011;39536;52.198;9.920;2023-07-13T02:24:11;4.07;;;2.60;;
13967;SDS011;39536;52.198;9.920;2023-07-13T02:26:42;2.60;;;2.10;;
13967;SDS011;39536;52.198;9.920;2023-07-13T02:29:09;4.00;;;2.53;;
13967;SDS011;39536;52.198;9.920;2023-07-13T02:31:37;2.80;;;2.60;;
13967;SDS011;39536;52.198;9.920;2023-07-13T02:34:04;2.50;;;2.30;;
13967;SDS011;39536;52.198;9.920;2023-07-13T02:36:31;3.23;;;2.40;;
13967;SDS011;39536;52.198;9.920;2023-07-13T02:39:00;3.13;;;2.60;;
13967;SDS011;39536;52.198;9.920;2023-07-13T02:41:27;3.40;;;2.80;;
13967;SDS011;39536;52.198;9.920;2023-07-13T02:43:54;2.93;;;2.63;;
13967;SDS011;39536;52.198;9.920;2023-07-13T02:46:27;2.57;;;2.37;;
13967;SDS011;39536;52.198;9.920;2023-07-13T02:48:55;3.30;;;2.63;;
13967;SDS011;39536;52.198;9.920;2023-07-13T02:51:22;6.80;;;2.93;;
13967;SDS011;39536;52.198;9.920;2023-07-13T02:53:49;4.57;;;2.53;;
13967;SDS011;39536;52.198;9.920;2023-07-13T02:56:15;3.60;;;2.20;;
13967;SDS011;39536;52.198;9.920;2023-07-13T02:58:42;3.23;;;2.60;;
13967;SDS011;39536;52.198;9.920;2023-07-13T03:01:09;5.10;;;2.90;;
13967;SDS011;39536;52.198;9.920;2023-07-13T03:03:36;4.60;;;3.17;;
13967;SDS011;39536;52.198;9.920;2023-07-13T03:06:05;3.30;;;2.90;;
13967;SDS011;39536;52.198;9.920;2023-07-13T03:08:33;3.37;;;2.40;;
13967;SDS011;39536;52.198;9.920;2023-07-13T03:11:00;5.33;;;3.10;;
13967;SDS011;39536;52.198;9.920;2023-07-13T03:13:27;4.67;;;2.47;;
13967;SDS011;39536;52.198;9.920;2023-07-13T03:15:54;5.07;;;2.40;;
13967;SDS011;39536;52.198;9.920;2023-07-13T03:18:20;2.73;;;2.50;;
13967;SDS011;39536;52.198;9.920;2023-07-13T03:20:49;3.77;;;3.07;;
13967;SDS011;39536;52.198;9.920;2023-07-13T03:23:18;4.03;;;2.60;;
13967;SDS011;39536;52.198;9.920;2023-07-13T03:25:44;3.73;;;2.60;;
13967;SDS011;39536;52.198;9.920;2023-07-13T03:28:11;2.60;;;2.40;;
13967;SDS011;39536;52.198;9.920;2023-07-13T03:30:38;3.60;;;3.07;;
13967;SDS011;39536;52.198;9.920;2023-07-13T03:33:05;3.93;;;2.73;;
13967;SDS011;39536;52.198;9.920;2023-07-13T03:35:31;2.77;;;2.57;;
13967;SDS011;39536;52.198;9.920;2023-07-13T03:37:58;4.70;;;3.00;;
13967;SDS011;39536;52.198;9.920;2023-07-13T03:40:26;8.43;;;2.80;;
13967;SDS011;39536;52.198;9.920;2023-07-13T03:42:53;4.43;;;2.73;;
13967;SDS011;39536;52.198;9.920;2023-07-13T03:45:20;3.67;;;2.67;;
13967;SDS011;39536;52.198;9.920;2023-07-13T03:47:47;3.37;;;3.07;;
13967;SDS011;39536;52.198;9.920;2023-07-13T03:50:13;3.67;;;2.40;;
13967;SDS011;39536;52.198;9.920;2023-07-13T03:52:40;3.17;;;2.63;;
13967;SDS011;39536;52.198;9.920;2023-07-13T03:55:06;4.40;;;2.80;;
13967;SDS011;39536;52.198;9.920;2023-07-13T03:57:35;3.90;;;2.70;;
13967;SDS011;39536;52.198;9.920;2023-07-13T04:00:01;3.53;;;2.73;;
13967;SDS011;39536;52.198;9.920;2023-07-13T04:02:29;2.83;;;2.30;;
13967;SDS011;39536;52.198;9.920;2023-07-13T04:04:56;2.70;;;2.50;;
13967;SDS011;39536;52.198;9.920;2023-07-13T04:07:22;4.13;;;2.33;;
13967;SDS011;39536;52.198;9.920;2023-07-13T04:09:49;2.33;;;2.10;;
13967;SDS011;39536;52.198;9.920;2023-07-13T04:12:16;3.47;;;2.30;;
13967;SDS011;39536;52.198;9.920;2023-07-13T04:14:43;6.53;;;2.47;;
13967;SDS011;39536;52.198;9.920;2023-07-13T04:17:10;3.73;;;2.17;;
13967;SDS011;39536;52.198;9.920;2023-07-13T04:19:37;4.67;;;2.60;;
13967;SDS011;39536;52.198;9.920;2023-07-13T04:22:04;3.47;;;2.30;;
13967;SDS011;39536;52.198;9.920;2023-07-13T04:24:30;3.97;;;2.80;;
13967;SDS011;39536;52.198;9.920;2023-07-13T04:26:57;3.80;;;2.50;;
13967;SDS011;39536;52.198;9.920;2023-07-13T04:29:24;5.33;;;2.53;;
13967;SDS011;39536;52.198;9.920;2023-07-13T04:31:52;2.33;;;2.03;;
13967;SDS011;39536;52.198;9.920;2023-07-13T04:34:19;5.70;;;3.03;;
13967;SDS011;39536;52.198;9.920;2023-07-13T04:36:45;3.10;;;2.27;;
13967;SDS011;39536;52.198;9.920;2023-07-13T04:39:12;4.97;;;3.00;;
13967;SDS011;39536;52.198;9.920;2023-07-13T04:41:38;3.80;;;2.80;;
13967;SDS011;39536;52.198;9.920;2023-07-13T04:44:05;3.00;;;2.20;;
13967;SDS011;39536;52.198;9.920;2023-07-13T04:46:32;4.03;;;2.43;;
13967;SDS011;39536;52.198;9.920;2023-07-13T04:49:00;3.43;;;2.70;;
13967;SDS011;39536;52.198;9.920;2023-07-13T04:51:29;3.70;;;3.20;;
13967;SDS011;39536;52.198;9.920;2023-07-13T04:53:55;3.47;;;2.83;;
13967;SDS011;39536;52.198;9.920;2023-07-13T04:56:22;4.80;;;2.90;;
13967;SDS011;39536;52.198;9.920;2023-07-13T04:58:48;2.57;;;2.30;;
13967;SDS011;39536;52.198;9.920;2023-07-13T05:01:15;4.23;;;2.47;;
13967;SDS011;39536;52.198;9.920;2023-07-13T05:03:41;10.23;;;3.43;;
13967;SDS011;39536;52.198;9.920;2023-07-13T05:06:09;6.13;;;2.50;;
13967;SDS011;39536;52.198;9.920;2023-07-13T05:08:36;4.93;;;2.60;;
13967;SDS011;39536;52.198;9.920;2023-07-13T05:11:03;5.17;;;2.57;;
13967;SDS011;39536;52.198;9.920;2023-07-13T05:13:32;3.50;;;2.40;;
13967;SDS011;39536;52.198;9.920;2023-07-13T05:15:59;2.97;;;2.47;;
13967;SDS011;39536;52.198;9.920;2023-07-13T05:18:27;4.10;;;2.27;;
13967;SDS011;39536;52.198;9.920;2023-07-13T05:20:57;5.33;;;2.43;;
13967;SDS011;39536;52.198;9.920;2023-07-13T05:23:25;2.53;;;2.33;;
13967;SDS011;39536;52.198;9.920;2023-07-13T05:25:52;2.63;;;2.20;;
13967;SDS011;39536;52.198;9.920;2023-07-13T05:28:19;4.17;;;2.87;;
13967;SDS011;39536;52.198;9.920;2023-07-13T05:30:45;3.10;;;2.47;;
13967;SDS011;39536;52.198;9.920;2023-07-13T05:33:12;4.23;;;2.83;;
13967;SDS011;39536;52.198;9.920;2023-07-13T05:35:38;3.50;;;2.87;;
13967;SDS011;39536;52.198;9.920;2023-07-13T05:38:05;3.63;;;2.50;;
13967;SDS011;39536;52.198;9.920;2023-07-13T05:40:33;2.83;;;2.30;;
13967;SDS011;39536;52.198;9.920;2023-07-13T05:43:00;4.87;;;3.07;;
13967;SDS011;39536;52.198;9.920;2023-07-13T05:45:26;4.80;;;2.93;;
13967;SDS011;39536;52.198;9.920;2023-07-13T05:47:53;2.40;;;2.20;;
13967;SDS011;39536;52.198;9.920;2023-07-13T05:50:19;3.10;;;2.50;;
13967;SDS011;39536;52.198;9.920;2023-07-13T05:52:46;5.75;;;3.22;;
13967;SDS011;39536;52.198;9.920;2023-07-13T05:55:12;5.23;;;2.87;;
13967;SDS011;39536;52.198;9.920;2023-07-13T05:57:41;3.77;;;2.47;;
13967;SDS011;39536;52.198;9.920;2023-07-13T06:00:11;3.77;;;2.60;;
13967;SDS011;39536;52.198;9.920;2023-07-13T06:02:38;4.17;;;2.60;;
13967;SDS011;39536;52.198;9.920;2023-07-13T06:05:05;8.30;;;3.03;;
13967;SDS011;39536;52.198;9.920;2023-07-13T06:07:32;2.67;;;2.43;;
13967;SDS011;39536;52.198;9.920;2023-07-13T06:09:58;3.70;;;2.43;;
13967;SDS011;39536;52.198;9.920;2023-07-13T06:12:25;6.30;;;3.00;;
13967;SDS011;39536;52.198;9.920;2023-07-13T06:14:53;3.10;;;2.80;;
13967;SDS011;39536;52.198;9.920;2023-07-13T06:17:19;3.20;;;2.60;;
13967;SDS011;39536;52.198;9.920;2023-07-13T06:19:46;8.77;;;2.93;;
13967;SDS011;39536;52.198;9.920;2023-07-13T06:22:13;2.70;;;2.50;;
13967;SDS011;39536;52.198;9.920;2023-07-13T06:24:39;3.97;;;3.03;;
13967;SDS011;39536;52.198;9.920;2023-07-13T06:27:06;7.97;;;2.80;;
13967;SDS011;39536;52.198;9.920;2023-07-13T06:29:32;7.30;;;3.03;;
13967;SDS011;39536;52.198;9.920;2023-07-13T06:32:01;5.53;;;3.20;;
13967;SDS011;39536;52.198;9.920;2023-07-13T06:34:27;5.87;;;3.40;;
13967;SDS011;39536;52.198;9.920;2023-07-13T06:36:54;4.20;;;2.80;;
13967;SDS011;39536;52.198;9.920;2023-07-13T06:39:20;4.73;;;2.50;;
13967;SDS011;39536;52.198;9.920;2023-07-13T06:41:47;3.90;;;2.43;;
13967;SDS011;39536;52.198;9.920;2023-07-13T06:44:13;4.37;;;2.53;;
13967;SDS011;39536;52.198;9.920;2023-07-13T06:46:40;6.00;;;2.60;;
13967;SDS011;39536;52.198;9.920;2023-07-13T06:49:08;3.77;;;2.40;;
13967;SDS011;39536;52.198;9.920;2023-07-13T06:51:35;4.60;;;2.23;;
13967;SDS011;39536;52.198;9.920;2023-07-13T06:54:02;4.03;;;2.20;;
13967;SDS011;39536;52.198;9.920;2023-07-13T06:56:29;3.43;;;2.23;;
13967;SDS011;39536;52.198;9.920;2023-07-13T06:58:56;4.67;;;2.30;;
13967;SDS011;39536;52.198;9.920;2023-07-13T07:01:22;7.77;;;2.07;;
13967;SDS011;39536;52.198;9.920;2023-07-13T07:03:49;7.13;;;2.10;;
13967;SDS011;39536;52.198;9.920;2023-07-13T07:06:18;6.07;;;2.40;;
13967;SDS011;39536;52.198;9.920;2023-07-13T07:08:48;4.47;;;2.27;;
13967;SDS011;39536;52.198;9.920;2023-07-13T07:11:16;5.63;;;2.93;;
13967;SDS011;39536;52.198;9.920;2023-07-13T07:13:44;3.70;;;2.07;;
13967;SDS011;39536;52.198;9.920;2023-07-13T07:16:11;2.50;;;2.10;;
13967;SDS011;39536;52.198;9.920;2023-07-13T07:18:38;2.53;;;2.00;;
13967;SDS011;39536;52.198;9.920;2023-07-13T07:21:04;2.77;;;2.03;;
13967;SDS011;39536;52.198;9.920;2023-07-13T07:23:33;4.13;;;2.40;;
13967;SDS011;39536;52.198;9.920;2023-07-13T07:25:59;3.50;;;2.07;;
13967;SDS011;39536;52.198;9.920;2023-07-13T07:28:26;5.47;;;1.90;;
13967;SDS011;39536;52.198;9.920;2023-07-13T07:30:54;3.13;;;1.60;;
13967;SDS011;39536;52.198;9.920;2023-07-13T07:33:22;3.07;;;2.40;;
13967;SDS011;39536;52.198;9.920;2023-07-13T07:35:49;3.10;;;2.00;;
13967;SDS011;39536;52.198;9.920;2023-07-13T07:38:15;4.20;;;1.87;;
13967;SDS011;39536;52.198;9.920;2023-07-13T07:40:43;4.57;;;2.30;;
13967;SDS011;39536;52.198;9.920;2023-07-13T07:43:11;3.50;;;1.60;;
13967;SDS011;39536;52.198;9.920;2023-07-13T07:45:38;4.03;;;2.23;;
13967;SDS011;39536;52.198;9.920;2023-07-13T07:48:07;3.07;;;1.67;;
13967;SDS011;39536;52.198;9.920;2023-07-13T07:50:34;3.07;;;1.97;;
13967;SDS011;39536;52.198;9.920;2023-07-13T07:53:03;3.37;;;2.00;;
13967;SDS011;39536;52.198;9.920;2023-07-13T07:55:32;3.23;;;2.10;;
13967;SDS011;39536;52.198;9.920;2023-07-13T07:58:01;4.70;;;1.80;;
13967;SDS011;39536;52.198;9.920;2023-07-13T08:00:28;3.73;;;1.87;;
13967;SDS011;39536;52.198;9.920;2023-07-13T08:02:56;5.03;;;2.10;;
13967;SDS011;39536;52.198;9.920;2023-07-13T08:05:23;2.90;;;1.60;;
13967;SDS011;39536;52.198;9.920;2023-07-13T08:07:50;2.70;;;1.43;;
13967;SDS011;39536;52.198;9.920;2023-07-13T08:10:17;2.40;;;1.73;;
13967;SDS011;39536;52.198;9.920;2023-07-13T08:12:44;4.30;;;2.07;;
13967;SDS011;39536;52.198;9.920;2023-07-13T08:15:13;6.37;;;1.50;;
13967;SDS011;39536;52.198;9.920;2023-07-13T08:17:41;2.47;;;1.50;;
13967;SDS011;39536;52.198;9.920;2023-07-13T08:20:11;4.17;;;1.83;;
13967;SDS011;39536;52.198;9.920;2023-07-13T08:22:44;4.37;;;1.40;;
13967;SDS011;39536;52.198;9.920;2023-07-13T08:25:11;3.87;;;1.80;;
13967;SDS011;39536;52.198;9.920;2023-07-13T08:27:38;3.93;;;1.70;;
13967;SDS011;39536;52.198;9.920;2023-07-13T08:30:05;4.53;;;2.23;;
13967;SDS011;39536;52.198;9.920;2023-07-13T08:32:35;4.07;;;1.53;;
13967;SDS011;39536;52.198;9.920;2023-07-13T08:35:02;3.20;;;1.60;;
13967;SDS011;39536;52.198;9.920;2023-07-13T08:37:30;3.50;;;1.90;;
13967;SDS011;39536;52.198;9.920;2023-07-13T08:39:56;5.83;;;1.93;;
13967;SDS011;39536;52.198;9.920;2023-07-13T08:42:28;3.57;;;1.73;;
13967;SDS011;39536;52.198;9.920;2023-07-13T08:45:03;3.50;;;1.57;;
13967;SDS011;39536;52.198;9.920;2023-07-13T08:47:40;4.30;;;1.87;;
13967;SDS011;39536;52.198;9.920;2023-07-13T08:50:12;2.27;;;1.60;;
13967;SDS011;39536;52.198;9.920;2023-07-13T08:52:43;2.23;;;1.60;;
13967;SDS011;39536;52.198;9.920;2023-07-13T08:55:14;3.23;;;2.00;;
13967;SDS011;39536;52.198;9.920;2023-07-13T08:57:44;3.00;;;1.80;;
13967;SDS011;39536;52.198;9.920;2023-07-13T09:00:18;2.37;;;1.93;;
13967;SDS011;39536;52.198;9.920;2023-07-13T09:02:48;3.97;;;2.33;;
13967;SDS011;39536;52.198;9.920;2023-07-13T09:05:23;5.60;;;2.07;;
13967;SDS011;39536;52.198;9.920;2023-07-13T09:07:57;3.77;;;1.67;;
13967;SDS011;39536;52.198;9.920;2023-07-13T09:10:35;2.80;;;1.60;;
13967;SDS011;39536;52.198;9.920;2023-07-13T09:13:11;3.20;;;2.10;;
13967;SDS011;39536;52.198;9.920;2023-07-13T09:15:48;4.90;;;2.10;;
13967;SDS011;39536;52.198;9.920;2023-07-13T09:18:18;5.87;;;2.23;;
13967;SDS011;39536;52.198;9.920;2023-07-13T09:20:50;2.93;;;2.13;;
13967;SDS011;39536;52.198;9.920;2023-07-13T09:23:21;3.40;;;2.20;;
13967;SDS011;39536;52.198;9.920;2023-07-13T09:25:50;3.87;;;2.50;;
13967;SDS011;39536;52.198;9.920;2023-07-13T09:28:22;5.17;;;2.57;;
13967;SDS011;39536;52.198;9.920;2023-07-13T09:30:52;4.60;;;2.80;;
13967;SDS011;39536;52.198;9.920;2023-07-13T09:33:26;5.77;;;2.20;;
13967;SDS011;39536;52.198;9.920;2023-07-13T09:35:54;5.60;;;2.73;;
13967;SDS011;39536;52.198;9.920;2023-07-13T09:38:22;3.40;;;2.50;;
13967;SDS011;39536;52.198;9.920;2023-07-13T09:40:56;3.20;;;2.50;;
13967;SDS011;39536;52.198;9.920;2023-07-13T09:43:34;8.70;;;2.80;;
13967;SDS011;39536;52.198;9.920;2023-07-13T09:46:01;6.60;;;2.93;;
13967;SDS011;39536;52.198;9.920;2023-07-13T09:48:39;4.17;;;2.90;;
13967;SDS011;39536;52.198;9.920;2023-07-13T09:51:30;3.40;;;2.90;;
13967;SDS011;39536;52.198;9.920;2023-07-13T09:54:19;3.33;;;2.23;;
13967;SDS011;39536;52.198;9.920;2023-07-13T09:56:51;2.80;;;2.23;;
13967;SDS011;39536;52.198;9.920;2023-07-13T09:59:26;2.93;;;2.43;;
13967;SDS011;39536;52.198;9.920;2023-07-13T10:01:55;2.83;;;2.50;;
13967;SDS011;39536;52.198;9.920;2023-07-13T10:04:31;5.57;;;2.67;;
13967;SDS011;39536;52.198;9.920;2023-07-13T10:07:05;3.97;;;2.50;;
13967;SDS011;39536;52.198;9.920;2023-07-13T10:09:33;2.70;;;2.30;;
13967;SDS011;39536;52.198;9.920;2023-07-13T10:12:00;4.90;;;2.70;;
13967;SDS011;39536;52.198;9.920;2023-07-13T10:14:30;2.70;;;2.20;;
13967;SDS011;39536;52.198;9.920;2023-07-13T10:16:58;4.23;;;2.83;;
13967;SDS011;39536;52.198;9.920;2023-07-13T10:19:29;2.40;;;2.20;;
13967;SDS011;39536;52.198;9.920;2023-07-13T10:21:59;3.90;;;2.30;;
13967;SDS011;39536;52.198;9.920;2023-07-13T10:24:29;3.90;;;2.70;;
13967;SDS011;39536;52.198;9.920;2023-07-13T10:27:10;4.50;;;2.73;;
13967;SDS011;39536;52.198;9.920;2023-07-13T10:29:43;3.63;;;2.83;;
13967;SDS011;39536;52.198;9.920;2023-07-13T10:32:13;5.07;;;2.60;;
13967;SDS011;39536;52.198;9.920;2023-07-13T10:34:45;2.83;;;2.30;;
13967;SDS011;39536;52.198;9.920;2023-07-13T10:37:22;3.43;;;2.60;;
13967;SDS011;39536;52.198;9.920;2023-07-13T10:40:01;3.60;;;2.63;;
13967;SDS011;39536;52.198;9.920;2023-07-13T10:42:36;3.83;;;2.80;;
13967;SDS011;39536;52.198;9.920;2023-07-13T10:45:12;3.03;;;2.70;;
13967;SDS011;39536;52.198;9.920;2023-07-13T10:47:41;2.63;;;2.30;;
13967;SDS011;39536;52.198;9.920;2023-07-13T10:50:13;6.53;;;2.53;;
13967;SDS011;39536;52.198;9.920;2023-07-13T10:52:45;3.07;;;2.57;;
13967;SDS011;39536;52.198;9.920;2023-07-13T10:55:31;3.17;;;2.13;;
13967;SDS011;39536;52.198;9.920;2023-07-13T10:58:01;5.73;;;2.30;;
13967;SDS011;39536;52.198;9.920;2023-07-13T11:00:30;4.30;;;2.20;;
13967;SDS011;39536;52.198;9.920;2023-07-13T11:03:00;2.40;;;2.20;;
13967;SDS011;39536;52.198;9.920;2023-07-13T11:05:30;2.70;;;2.07;;
13967;SDS011;39536;52.198;9.920;2023-07-13T11:08:03;3.60;;;3.23;;
13967;SDS011;39536;52.198;9.920;2023-07-13T11:10:47;6.80;;;2.63;;
13967;SDS011;39536;52.198;9.920;2023-07-13T11:13:38;4.73;;;2.90;;
13967;SDS011;39536;52.198;9.920;2023-07-13T11:16:36;5.77;;;2.00;;
13967;SDS011;39536;52.198;9.920;2023-07-13T11:22:14;1.70;;;1.60;;
13967;SDS011;39536;52.198;9.920;2023-07-13T11:24:56;2.33;;;2.13;;
13967;SDS011;39536;52.198;9.920;2023-07-13T11:27:34;2.63;;;2.43;;
13967;SDS011;39536;52.198;9.920;2023-07-13T11:30:08;4.27;;;2.50;;
13967;SDS011;39536;52.198;9.920;2023-07-13T11:32:50;2.33;;;2.10;;
13967;SDS011;39536;52.198;9.920;2023-07-13T11:35:31;3.67;;;2.30;;
13967;SDS011;39536;52.198;9.920;2023-07-13T11:38:01;2.13;;;1.93;;
13967;SDS011;39536;52.198;9.920;2023-07-13T11:40:29;2.60;;;2.10;;
13967;SDS011;39536;52.198;9.920;2023-07-13T11:42:58;2.23;;;2.00;;
13967;SDS011;39536;52.198;9.920;2023-07-13T11:45:26;3.23;;;2.23;;
13967;SDS011;39536;52.198;9.920;2023-07-13T11:47:53;3.20;;;2.50;;
13967;SDS011;39536;52.198;9.920;2023-07-13T11:50:22;2.73;;;2.20;;
13967;SDS011;39536;52.198;9.920;2023-07-13T11:52:50;2.67;;;2.47;;
13967;SDS011;39536;52.198;9.920;2023-07-13T11:55:22;2.93;;;2.47;;
13967;SDS011;39536;52.198;9.920;2023-07-13T11:57:50;2.87;;;2.47;;
13967;SDS011;39536;52.198;9.920;2023-07-13T12:00:21;2.60;;;2.40;;
13967;SDS011;39536;52.198;9.920;2023-07-13T12:02:53;2.83;;;2.63;;
13967;SDS011;39536;52.198;9.920;2023-07-13T12:05:22;4.90;;;3.30;;
13967;SDS011;39536;52.198;9.920;2023-07-13T12:07:50;3.27;;;2.87;;
13967;SDS011;39536;52.198;9.920;2023-07-13T12:10:20;2.83;;;2.40;;
13967;SDS011;39536;52.198;9.920;2023-07-13T12:12:52;2.97;;;2.67;;
13967;SDS011;39536;52.198;9.920;2023-07-13T12:15:19;2.67;;;2.47;;
13967;SDS011;39536;52.198;9.920;2023-07-13T12:17:48;6.40;;;3.23;;
13967;SDS011;39536;52.198;9.920;2023-07-13T12:20:21;3.20;;;2.73;;
13967;SDS011;39536;52.198;9.920;2023-07-13T12:22:51;2.90;;;2.57;;
13967;SDS011;39536;52.198;9.920;2023-07-13T12:25:19;4.03;;;2.87;;
13967;SDS011;39536;52.198;9.920;2023-07-13T12:27:49;2.60;;;2.30;;
13967;SDS011;39536;52.198;9.920;2023-07-13T12:30:24;4.10;;;3.30;;
13967;SDS011;39536;52.198;9.920;2023-07-13T12:32:58;4.27;;;2.63;;
13967;SDS011;39536;52.198;9.920;2023-07-13T12:35:26;2.87;;;2.57;;
13967;SDS011;39536;52.198;9.920;2023-07-13T12:37:56;3.70;;;2.47;;
13967;SDS011;39536;52.198;9.920;2023-07-13T12:40:31;3.07;;;2.77;;
13967;SDS011;39536;52.198;9.920;2023-07-13T12:43:01;2.70;;;2.50;;
13967;SDS011;39536;52.198;9.920;2023-07-13T12:45:29;4.03;;;2.53;;
13967;SDS011;39536;52.198;9.920;2023-07-13T12:47:57;3.67;;;3.37;;
13967;SDS011;39536;52.198;9.920;2023-07-13T12:50:30;3.03;;;2.73;;
13967;SDS011;39536;52.198;9.920;2023-07-13T12:53:03;7.53;;;3.23;;
13967;SDS011;39536;52.198;9.920;2023-07-13T12:55:39;2.57;;;2.40;;
13967;SDS011;39536;52.198;9.920;2023-07-13T12:58:13;3.70;;;2.87;;
13967;SDS011;39536;52.198;9.920;2023-07-13T13:00:48;4.27;;;2.73;;
13967;SDS011;39536;52.198;9.920;2023-07-13T13:03:20;2.83;;;2.63;;
13967;SDS011;39536;52.198;9.920;2023-07-13T13:05:49;3.13;;;2.83;;
13967;SDS011;39536;52.198;9.920;2023-07-13T13:08:23;3.10;;;2.83;;
13967;SDS011;39536;52.198;9.920;2023-07-13T13:10:50;3.13;;;2.90;;
13967;SDS011;39536;52.198;9.920;2023-07-13T13:13:21;3.50;;;3.20;;
13967;SDS011;39536;52.198;9.920;2023-07-13T13:15:48;3.10;;;2.90;;
13967;SDS011;39536;52.198;9.920;2023-07-13T13:18:15;5.93;;;3.23;;
13967;SDS011;39536;52.198;9.920;2023-07-13T13:20:43;3.00;;;2.70;;
13967;SDS011;39536;52.198;9.920;2023-07-13T13:23:11;2.83;;;2.63;;
13967;SDS011;39536;52.198;9.920;2023-07-13T13:25:42;3.47;;;2.80;;
13967;SDS011;39536;52.198;9.920;2023-07-13T13:28:13;4.27;;;3.13;;
13967;SDS011;39536;52.198;9.920;2023-07-13T13:30:43;3.50;;;3.20;;
13967;SDS011;39536;52.198;9.920;2023-07-13T13:33:10;3.20;;;3.00;;
13967;SDS011;39536;52.198;9.920;2023-07-13T13:35:38;3.10;;;2.90;;
13967;SDS011;39536;52.198;9.920;2023-07-13T13:38:09;3.93;;;3.43;;
13967;SDS011;39536;52.198;9.920;2023-07-13T13:40:37;3.93;;;3.60;;
13967;SDS011;39536;52.198;9.920;2023-07-13T13:43:08;3.50;;;3.23;;
13967;SDS011;39536;52.198;9.920;2023-07-13T13:45:40;3.93;;;3.57;;
13967;SDS011;39536;52.198;9.920;2023-07-13T13:48:08;5.77;;;3.40;;
13967;SDS011;39536;52.198;9.920;2023-07-13T13:50:41;3.50;;;3.20;;
13967;SDS011;39536;52.198;9.920;2023-07-13T13:53:09;3.57;;;3.27;;
13967;SDS011;39536;52.198;9.920;2023-07-13T13:55:36;3.83;;;3.40;;
13967;SDS011;39536;52.198;9.920;2023-07-13T13:58:03;3.50;;;2.67;;
13967;SDS011;39536;52.198;9.920;2023-07-13T14:00:31;3.23;;;3.03;;
13967;SDS011;39536;52.198;9.920;2023-07-13T14:02:58;4.23;;;3.17;;
13967;SDS011;39536;52.198;9.920;2023-07-13T14:05:26;3.80;;;3.50;;
13967;SDS011;39536;52.198;9.920;2023-07-13T14:07:53;3.27;;;3.00;;
13967;SDS011;39536;52.198;9.920;2023-07-13T14:10:21;3.90;;;3.53;;
13967;SDS011;39536;52.198;9.920;2023-07-13T14:12:50;3.70;;;3.47;;
13967;SDS011;39536;52.198;9.920;2023-07-13T14:15:20;3.50;;;3.20;;
13967;SDS011;39536;52.198;9.920;2023-07-13T14:17:48;4.03;;;3.63;;
13967;SDS011;39536;52.198;9.920;2023-07-13T14:20:15;9.43;;;3.10;;
13967;SDS011;39536;52.198;9.920;2023-07-13T14:22:43;3.37;;;2.90;;
13967;SDS011;39536;52.198;9.920;2023-07-13T14:25:10;3.50;;;2.30;;
13967;SDS011;39536;52.198;9.920;2023-07-13T14:27:37;4.37;;;2.17;;
13967;SDS011;39536;52.198;9.920;2023-07-13T14:30:07;2.50;;;2.30;;
13967;SDS011;39536;52.198;9.920;2023-07-13T14:32:39;6.30;;;2.47;;
13967;SDS011;39536;52.198;9.920;2023-07-13T14:35:06;4.50;;;2.60;;
13967;SDS011;39536;52.198;9.920;2023-07-13T14:37:34;5.33;;;3.33;;
13967;SDS011;39536;52.198;9.920;2023-07-13T14:40:04;4.50;;;3.00;;
13967;SDS011;39536;52.198;9.920;2023-07-13T14:42:38;7.77;;;3.63;;
13967;SDS011;39536;52.198;9.920;2023-07-13T14:45:05;11.47;;;5.77;;
13967;SDS011;39536;52.198;9.920;2023-07-13T14:47:38;3.97;;;3.17;;
13967;SDS011;39536;52.198;9.920;2023-07-13T14:50:07;4.30;;;3.57;;
13967;SDS011;39536;52.198;9.920;2023-07-13T14:52:42;3.40;;;3.00;;
13967;SDS011;39536;52.198;9.920;2023-07-13T14:55:11;7.20;;;3.40;;
13967;SDS011;39536;52.198;9.920;2023-07-13T14:57:42;3.13;;;2.83;;
13967;SDS011;39536;52.198;9.920;2023-07-13T15:00:12;3.40;;;3.00;;
13967;SDS011;39536;52.198;9.920;2023-07-13T15:02:41;2.93;;;2.53;;